Time;durP1;ratioP1;P1;durP2;ratioP2;P2;SDS_P1;SDS_P2;PMS_P1;PMS_P2;Temp;Humidity;BMP_temperature;BMP_pressure;BME280_temperature;BME280_humidity;BME280_pressure;Samples;Min_cycle;Max_cycle;Signal;HPM_P1;HPM_P2
2022/04/22 00:01:48;;;;;;;35.63;18.73;;;9.60;99.90;;;;;;4172310;28;20507;-78
2022/04/22 00:03:50;;;;;;;37.73;19.13;;;9.60;99.90;;;;;;4165675;28;20280;-78
2022/04/22 00:05:51;;;;;;;36.70;18.53;;;9.50;99.90;;;;;;4167439;28;20237;-78
2022/04/22 00:07:53;;;;;;;36.27;19.40;;;9.50;99.90;;;;;;4165883;28;20222;-79
2022/04/22 00:09:55;;;;;;;37.63;19.33;;;9.50;99.90;;;;;;4166432;28;20966;-78
2022/04/22 00:11:57;;;;;;;37.07;18.80;;;9.50;99.90;;;;;;4170714;28;20582;-79
2022/04/22 00:14:02;;;;;;;37.73;19.33;;;9.90;99.90;;;;;;4167866;28;20496;-79
2022/04/22 00:16:05;;;;;;;35.40;17.97;;;9.50;99.90;;;;;;4169226;28;20715;-78
2022/04/22 00:18:06;;;;;;;38.37;18.23;;;9.50;99.90;;;;;;4166719;28;20461;-79
2022/04/22 00:20:10;;;;;;;36.50;18.23;;;9.50;99.90;;;;;;4166778;28;20453;-78
2022/04/22 00:22:12;;;;;;;36.57;18.30;;;9.50;99.90;;;;;;4171082;28;20561;-78
2022/04/22 00:24:14;;;;;;;39.23;18.97;;;9.50;99.90;;;;;;4167706;28;20892;-78
2022/04/22 00:26:16;;;;;;;38.77;19.50;;;9.50;99.90;;;;;;4167415;28;20667;-78
2022/04/22 00:28:18;;;;;;;41.20;20.43;;;9.50;99.90;;;;;;4167879;28;20479;-79
2022/04/22 00:30:21;;;;;;;42.13;19.97;;;9.50;99.90;;;;;;4169196;28;20468;-78
2022/04/22 00:32:22;;;;;;;37.63;19.60;;;9.50;99.90;;;;;;4166506;28;20458;-79
2022/04/22 00:34:24;;;;;;;39.40;19.30;;;9.50;99.90;;;;;;4168182;28;20218;-78
2022/04/22 00:36:26;;;;;;;40.77;19.60;;;9.50;99.90;;;;;;4167433;28;20492;-78
2022/04/22 00:38:28;;;;;;;38.70;18.87;;;9.50;99.90;;;;;;4161901;28;20217;-79
2022/04/22 00:40:29;;;;;;;38.43;19.17;;;9.50;99.90;;;;;;4166450;28;20557;-79
2022/04/22 00:42:31;;;;;;;35.47;18.87;;;9.50;99.90;;;;;;4168242;28;20515;-79
2022/04/22 00:44:36;;;;;;;39.20;19.63;;;9.40;99.90;;;;;;4168713;28;20214;-78
2022/04/22 00:46:39;;;;;;;41.93;19.67;;;9.50;99.90;;;;;;4164973;28;20582;-78
2022/04/22 00:48:41;;;;;;;37.00;18.37;;;9.40;99.90;;;;;;4167296;28;20947;-78
2022/04/22 00:50:43;;;;;;;43.20;20.93;;;9.50;99.90;;;;;;4171686;28;20552;-79
2022/04/22 00:52:45;;;;;;;38.97;19.07;;;9.50;99.90;;;;;;4170391;28;20480;-78
2022/04/22 00:54:47;;;;;;;39.40;19.00;;;9.50;99.90;;;;;;4166897;28;20747;-78
2022/04/22 00:56:50;;;;;;;40.17;20.00;;;9.50;99.90;;;;;;4169411;28;20493;-77
2022/04/22 00:58:52;;;;;;;40.40;19.43;;;9.40;99.90;;;;;;4168125;28;20505;-77
2022/04/22 01:00:54;;;;;;;41.13;20.43;;;9.50;99.90;;;;;;4170152;28;20465;-79
2022/04/22 01:02:57;;;;;;;37.23;18.47;;;9.40;99.90;;;;;;4168200;28;20986;-79
2022/04/22 01:09:51;;;;;;;37.93;19.17;;;9.40;99.90;;;;;;4166019;28;20949;-78
2022/04/22 01:11:53;;;;;;;37.30;19.40;;;9.40;99.90;;;;;;4162361;28;20954;-78
2022/04/22 01:13:55;;;;;;;40.03;19.53;;;9.40;99.90;;;;;;4167535;28;20551;-78
2022/04/22 01:15:57;;;;;;;39.60;19.27;;;9.40;99.90;;;;;;4166136;28;20485;-79
2022/04/22 01:18:00;;;;;;;39.63;19.37;;;9.40;99.90;;;;;;4165056;28;20461;-78
2022/04/22 01:20:02;;;;;;;39.50;20.53;;;9.40;99.90;;;;;;4164754;28;20804;-77
2022/04/22 01:22:07;;;;;;;37.23;18.93;;;9.40;99.90;;;;;;4166089;28;20479;-77
2022/04/22 01:24:09;;;;;;;39.33;19.60;;;9.40;99.90;;;;;;4165791;28;20486;-78
2022/04/22 01:26:11;;;;;;;38.73;18.23;;;9.40;99.90;;;;;;4165434;28;20210;-78
2022/04/22 01:28:14;;;;;;;38.47;19.13;;;9.50;99.90;;;;;;4167782;28;20456;-77
2022/04/22 01:30:20;;;;;;;37.47;19.20;;;9.40;99.90;;;;;;4163915;28;20641;-77
2022/04/22 01:32:21;;;;;;;38.93;19.33;;;9.40;99.90;;;;;;4167541;28;20477;-78
2022/04/22 01:34:23;;;;;;;36.33;18.60;;;9.40;99.90;;;;;;4169299;28;20461;-78
2022/04/22 01:36:25;;;;;;;37.37;19.03;;;9.40;99.90;;;;;;4165818;28;20494;-77
2022/04/22 01:38:29;;;;;;;38.43;19.57;;;9.40;99.90;;;;;;4165210;28;21195;-76
2022/04/22 01:40:31;;;;;;;40.40;19.80;;;9.40;99.90;;;;;;4165655;28;20534;-78
2022/04/22 01:42:32;;;;;;;41.13;20.03;;;9.40;99.90;;;;;;4164737;28;20245;-77
2022/04/22 01:44:35;;;;;;;38.30;19.00;;;9.30;99.90;;;;;;4168104;28;20215;-77
2022/04/22 01:46:37;;;;;;;38.70;19.17;;;9.30;99.90;;;;;;4165438;28;20223;-77
2022/04/22 01:48:39;;;;;;;38.57;18.73;;;9.30;99.90;;;;;;4163227;28;20207;-78
2022/04/22 01:50:41;;;;;;;40.80;19.57;;;9.30;99.90;;;;;;4170948;28;20207;-77
2022/04/22 01:52:42;;;;;;;41.37;19.97;;;9.30;99.90;;;;;;4166699;28;20480;-78
2022/04/22 01:54:45;;;;;;;42.80;19.63;;;9.30;99.90;;;;;;4164231;28;20478;-76
2022/04/22 01:56:47;;;;;;;38.67;18.37;;;9.30;99.90;;;;;;4165748;28;20296;-78
2022/04/22 01:58:49;;;;;;;42.03;19.43;;;9.30;99.90;;;;;;4166506;28;20461;-78
2022/04/22 02:00:50;;;;;;;40.43;19.87;;;9.30;99.90;;;;;;4163213;28;20565;-78
2022/04/22 02:02:52;;;;;;;37.40;19.73;;;9.30;99.90;;;;;;4160127;28;20235;-78
2022/04/22 02:04:54;;;;;;;39.07;19.53;;;9.30;99.90;;;;;;4157329;28;20527;-78
2022/04/22 02:06:55;;;;;;;42.13;19.27;;;9.30;99.90;;;;;;4158715;28;20487;-78
2022/04/22 02:08:57;;;;;;;44.67;20.90;;;9.30;99.90;;;;;;4159043;28;20460;-78
2022/04/22 02:11:00;;;;;;;39.13;19.37;;;9.30;99.90;;;;;;4158138;28;20467;-77
2022/04/22 02:13:02;;;;;;;40.67;20.13;;;9.30;99.90;;;;;;4162291;28;20774;-77
2022/04/22 02:15:04;;;;;;;40.00;19.27;;;9.30;99.90;;;;;;4162093;28;20821;-77
2022/04/22 02:17:06;;;;;;;40.43;20.20;;;9.30;99.90;;;;;;4159049;28;20700;-78
2022/04/22 02:19:08;;;;;;;43.43;21.07;;;9.30;99.90;;;;;;4158929;28;20508;-78
2022/04/22 02:21:11;;;;;;;44.47;20.10;;;9.30;99.90;;;;;;4157776;28;20472;-78
2022/04/22 02:23:13;;;;;;;42.13;19.43;;;9.30;99.90;;;;;;4162680;28;21020;-78
2022/04/22 02:25:15;;;;;;;40.20;19.70;;;9.20;99.90;;;;;;4161536;28;20453;-77
2022/04/22 02:29:40;;;;;;;40.70;19.53;;;9.20;99.90;;;;;;4155293;28;20253;-77
2022/04/22 02:31:41;;;;;;;40.13;19.50;;;9.20;99.90;;;;;;4159130;28;20215;-78
2022/04/22 02:33:43;;;;;;;40.80;19.43;;;9.30;99.90;;;;;;4172310;28;20226;-78
2022/04/22 02:35:46;;;;;;;41.90;19.83;;;9.20;99.90;;;;;;4158884;28;20920;-77
2022/04/22 02:37:47;;;;;;;44.80;20.37;;;9.30;99.90;;;;;;4161406;28;20500;-78
2022/04/22 02:39:49;;;;;;;39.40;19.27;;;9.20;99.90;;;;;;4163547;28;20533;-78
2022/04/22 02:46:31;;;;;;;41.97;19.93;;;9.20;99.90;;;;;;4158840;28;20218;-78
2022/04/22 02:48:33;;;;;;;39.67;19.67;;;9.20;99.90;;;;;;4170207;28;20477;-78
2022/04/22 02:50:34;;;;;;;42.27;20.23;;;9.20;99.90;;;;;;4164087;28;20520;-77
2022/04/22 02:52:37;;;;;;;40.27;20.03;;;9.20;99.90;;;;;;4167091;28;20478;-77
2022/04/22 02:54:38;;;;;;;39.77;20.00;;;9.20;99.90;;;;;;4170506;28;20492;-78
2022/04/22 02:56:40;;;;;;;41.67;20.23;;;9.20;99.90;;;;;;4151248;28;20492;-77
2022/04/22 02:58:42;;;;;;;40.23;19.60;;;9.20;99.90;;;;;;4163800;28;20474;-78
2022/04/22 03:00:45;;;;;;;40.73;20.30;;;9.20;99.90;;;;;;4162724;28;20462;-78
2022/04/22 03:02:47;;;;;;;40.27;20.47;;;9.20;99.90;;;;;;4180639;22;20230;-79
2022/04/22 03:04:49;;;;;;;43.93;19.87;;;9.20;99.90;;;;;;4173216;28;20871;-76
2022/04/22 03:06:51;;;;;;;38.73;19.10;;;9.20;99.90;;;;;;4178378;28;20690;-77
2022/04/22 03:08:52;;;;;;;39.17;19.13;;;9.20;99.90;;;;;;4180843;28;20452;-77
2022/04/22 03:10:55;;;;;;;41.97;19.83;;;9.20;99.90;;;;;;4171865;28;20506;-77
2022/04/22 03:12:57;;;;;;;44.20;20.77;;;9.20;99.90;;;;;;4176090;28;20855;-76
2022/04/22 03:14:58;;;;;;;40.93;20.17;;;9.20;99.90;;;;;;4179658;28;20461;-76
2022/04/22 03:17:02;;;;;;;40.30;20.77;;;9.20;99.90;;;;;;4178059;28;20485;-77
2022/04/22 03:19:04;;;;;;;39.80;20.73;;;9.20;99.90;;;;;;4177421;28;20461;-76
2022/04/22 03:21:05;;;;;;;42.03;20.37;;;9.30;99.90;;;;;;4178404;28;20872;-76
2022/04/22 03:23:07;;;;;;;44.03;20.57;;;9.20;99.90;;;;;;4177768;28;20236;-77
2022/04/22 03:25:09;;;;;;;43.43;20.43;;;9.20;99.90;;;;;;4179505;28;20461;-77
2022/04/22 03:27:12;;;;;;;44.83;21.60;;;9.20;99.90;;;;;;4176497;28;20210;-76
2022/04/22 03:29:14;;;;;;;43.97;20.50;;;9.20;99.90;;;;;;4179467;28;20219;-77
2022/04/22 03:31:15;;;;;;;42.73;21.17;;;9.20;99.90;;;;;;4186359;28;20521;-77
2022/04/22 03:33:19;;;;;;;44.93;21.37;;;9.20;99.90;;;;;;4175640;28;20496;-76
2022/04/22 03:35:21;;;;;;;42.50;20.70;;;9.30;99.90;;;;;;4175940;28;20456;-77
2022/04/22 03:37:23;;;;;;;41.97;20.60;;;9.30;99.90;;;;;;4170859;28;20536;-76
2022/04/22 03:39:24;;;;;;;43.93;21.40;;;9.30;99.90;;;;;;4173959;28;20199;-76
2022/04/22 03:41:26;;;;;;;44.50;20.93;;;9.30;99.90;;;;;;4174752;28;20527;-77
2022/04/22 03:43:28;;;;;;;49.07;22.30;;;9.30;99.90;;;;;;4174445;28;20571;-77
2022/04/22 03:45:30;;;;;;;44.57;22.00;;;9.30;99.90;;;;;;4173786;28;20469;-79
2022/04/22 03:47:32;;;;;;;47.13;22.63;;;9.30;99.90;;;;;;4173738;28;20568;-77
2022/04/22 03:49:35;;;;;;;45.23;21.67;;;9.30;99.90;;;;;;4175747;28;20518;-76
2022/04/22 03:51:37;;;;;;;43.93;22.10;;;9.30;99.90;;;;;;4173259;28;20222;-76
2022/04/22 03:53:40;;;;;;;44.30;21.83;;;9.30;99.90;;;;;;4173857;28;20461;-77
2022/04/22 03:55:43;;;;;;;45.17;21.17;;;9.30;99.90;;;;;;4172907;28;20493;-77
2022/04/22 04:00:05;;;;;;;45.03;21.80;;;9.30;99.90;;;;;;4182492;28;20867;-78
2022/04/22 04:02:07;;;;;;;45.60;21.97;;;9.30;99.90;;;;;;4178930;28;20222;-76
2022/04/22 04:04:09;;;;;;;46.10;22.33;;;9.30;99.90;;;;;;4173028;28;21000;-76
2022/04/22 04:06:12;;;;;;;47.17;23.17;;;9.30;99.90;;;;;;4173907;28;20507;-77
2022/04/22 04:08:14;;;;;;;44.27;21.60;;;9.30;99.90;;;;;;4175581;28;20523;-78
2022/04/22 04:17:14;;;;;;;44.40;20.23;;;9.30;99.90;;;;;;4174478;28;20472;-76
2022/04/22 04:23:57;;;;;;;47.77;22.03;;;9.30;99.90;;;;;;4174589;28;22965;-77
2022/04/22 04:25:59;;;;;;;50.27;23.57;;;9.30;99.90;;;;;;4175033;28;20972;-76
2022/04/22 04:28:02;;;;;;;44.13;22.57;;;9.30;99.90;;;;;;4175311;28;21011;-76
2022/04/22 04:30:06;;;;;;;44.77;21.23;;;9.40;99.90;;;;;;4175511;28;20469;-76
2022/04/22 04:32:09;;;;;;;42.80;21.33;;;9.30;99.90;;;;;;4174752;28;20831;-78
2022/04/22 04:34:10;;;;;;;44.90;22.47;;;9.30;99.90;;;;;;4176342;28;20480;-79
2022/04/22 04:36:13;;;;;;;42.90;20.70;;;9.40;99.90;;;;;;4175547;28;20522;-78
2022/04/22 04:38:16;;;;;;;45.57;22.33;;;9.40;99.90;;;;;;4168602;28;20864;-78
2022/04/22 04:40:18;;;;;;;46.17;22.60;;;9.40;99.90;;;;;;4173767;28;20468;-79
2022/04/22 04:42:20;;;;;;;44.43;22.13;;;9.40;99.90;;;;;;4177328;28;20465;-79
2022/04/22 04:44:22;;;;;;;45.60;22.60;;;9.40;99.90;;;;;;4176088;28;20639;-79
2022/04/22 04:46:23;;;;;;;46.40;22.40;;;9.40;99.90;;;;;;4176005;28;20630;-79
2022/04/22 04:48:25;;;;;;;49.23;23.37;;;9.40;99.90;;;;;;4174122;28;20214;-79
2022/04/22 04:50:30;;;;;;;46.77;21.50;;;9.40;99.90;;;;;;4173135;28;20206;-78
2022/04/22 04:52:33;;;;;;;42.47;21.97;;;9.40;99.90;;;;;;4177133;28;20465;-78
2022/04/22 04:54:36;;;;;;;47.50;23.13;;;9.40;99.90;;;;;;4174479;28;21127;-78
2022/04/22 04:56:38;;;;;;;46.27;22.50;;;9.50;99.90;;;;;;4175098;28;20651;-79
2022/04/22 04:58:40;;;;;;;46.53;22.50;;;9.40;99.90;;;;;;4174556;28;20230;-79
2022/04/22 05:00:42;;;;;;;44.47;21.53;;;9.50;99.90;;;;;;4174799;28;20214;-78
2022/04/22 05:02:43;;;;;;;48.07;22.13;;;9.50;99.90;;;;;;4176040;28;20210;-78
2022/04/22 05:04:45;;;;;;;44.67;21.53;;;9.50;99.90;;;;;;4173647;28;20218;-78
2022/04/22 05:06:47;;;;;;;42.43;21.77;;;9.50;99.90;;;;;;4173251;28;20242;-79
2022/04/22 05:08:49;;;;;;;46.30;21.87;;;9.50;99.90;;;;;;4174019;28;20276;-78
2022/04/22 05:10:52;;;;;;;42.47;21.67;;;9.50;99.90;;;;;;4173943;28;20308;-79
2022/04/22 05:12:55;;;;;;;45.20;21.07;;;9.50;99.90;;;;;;4174280;28;20249;-78
2022/04/22 05:14:57;;;;;;;48.10;22.10;;;9.50;99.90;;;;;;4174900;28;20675;-79
2022/04/22 05:16:59;;;;;;;46.20;23.33;;;9.50;99.90;;;;;;4173098;28;20210;-79
2022/04/22 05:19:01;;;;;;;47.00;22.83;;;9.50;99.90;;;;;;4174322;28;20655;-78
2022/04/22 05:21:02;;;;;;;49.00;23.90;;;9.50;99.90;;;;;;4174477;28;20276;-78
2022/04/22 05:23:04;;;;;;;47.13;23.80;;;9.50;99.90;;;;;;4175115;28;20257;-78
2022/04/22 05:25:08;;;;;;;52.67;24.27;;;9.50;99.90;;;;;;4171035;28;20631;-79
2022/04/22 05:27:11;;;;;;;48.03;23.47;;;9.50;99.90;;;;;;4175492;28;20228;-76
2022/04/22 05:33:51;;;;;;;47.53;23.23;;;9.50;99.90;;;;;;4176756;28;20276;-79
2022/04/22 05:35:52;;;;;;;49.40;22.90;;;9.50;99.90;;;;;;4174598;28;20211;-79
2022/04/22 05:37:56;;;;;;;50.80;24.30;;;9.50;99.90;;;;;;4175090;28;20534;-78
2022/04/22 05:39:58;;;;;;;47.40;23.40;;;9.50;99.90;;;;;;4175177;28;20275;-78
2022/04/22 05:42:00;;;;;;;47.97;24.17;;;9.50;99.90;;;;;;4174393;28;20375;-78
2022/04/22 05:44:04;;;;;;;49.37;24.73;;;9.50;99.90;;;;;;4175681;28;20519;-79
2022/04/22 05:46:05;;;;;;;50.97;23.73;;;9.50;99.90;;;;;;4173777;28;20914;-79
2022/04/22 05:48:08;;;;;;;46.47;23.93;;;9.50;99.90;;;;;;4175482;28;21126;-78
2022/04/22 05:50:12;;;;;;;46.27;23.23;;;9.50;99.90;;;;;;4173068;28;20852;-79
2022/04/22 05:52:13;;;;;;;51.63;24.70;;;9.60;99.90;;;;;;4174190;28;20659;-80
2022/04/22 05:54:15;;;;;;;48.90;24.83;;;9.60;99.90;;;;;;4181688;28;20527;-82
2022/04/22 05:56:17;;;;;;;47.70;23.43;;;9.70;99.90;;;;;;4181192;28;20218;-82
2022/04/22 05:58:18;;;;;;;47.83;24.77;;;9.70;99.90;;;;;;4182538;28;20553;-79
2022/04/22 06:00:23;;;;;;;49.53;23.93;;;9.60;99.90;;;;;;4178279;28;20460;-77
2022/04/22 06:02:25;;;;;;;48.07;24.13;;;9.80;99.90;;;;;;4179606;28;20211;-76
2022/04/22 06:04:27;;;;;;;45.57;23.67;;;9.80;99.90;;;;;;4177843;28;20245;-77
2022/04/22 06:06:29;;;;;;;49.17;23.87;;;9.80;99.90;;;;;;4178137;28;20516;-77
2022/04/22 06:10:49;;;;;;;46.77;24.27;;;9.90;99.90;;;;;;4152864;28;20744;-77
2022/04/22 06:12:50;;;;;;;48.37;24.27;;;9.90;99.90;;;;;;4175930;28;20264;-77
2022/04/22 06:14:53;;;;;;;49.13;25.17;;;10.00;99.90;;;;;;4176113;28;20224;-77
2022/04/22 06:16:56;;;;;;;45.63;24.20;;;10.00;99.90;;;;;;4174290;28;20215;-78
2022/04/22 06:18:58;;;;;;;48.23;24.00;;;10.40;99.90;;;;;;4167341;28;20242;-76
2022/04/22 06:20:59;;;;;;;48.13;24.57;;;10.10;99.90;;;;;;4169389;28;20238;-77
2022/04/22 06:23:01;;;;;;;49.50;24.80;;;10.20;99.90;;;;;;4166566;28;20709;-76
2022/04/22 06:25:03;;;;;;;48.97;24.83;;;10.30;99.90;;;;;;4162779;28;20208;-77
2022/04/22 06:27:05;;;;;;;53.27;25.30;;;10.30;99.90;;;;;;4160348;28;20766;-77
2022/04/22 06:29:08;;;;;;;48.57;25.57;;;10.40;99.90;;;;;;4159441;28;20218;-77
2022/04/22 06:31:10;;;;;;;51.13;26.43;;;10.40;99.90;;;;;;4158704;28;20573;-77
2022/04/22 06:33:14;;;;;;;48.47;26.23;;;10.50;99.90;;;;;;4158696;28;20314;-77
2022/04/22 06:35:18;;;;;;;44.77;24.80;;;10.60;99.90;;;;;;4157828;28;20219;-76
2022/04/22 06:37:21;;;;;;;48.70;25.30;;;10.60;99.90;;;;;;4163040;28;20671;-77
2022/04/22 06:39:23;;;;;;;48.03;24.97;;;10.60;99.90;;;;;;4160763;28;20713;-77
2022/04/22 06:46:01;;;;;;;48.90;25.37;;;10.80;99.90;;;;;;4123155;28;20231;-77
2022/04/22 06:48:03;;;;;;;49.23;26.33;;;10.80;99.90;;;;;;4160456;28;20561;-77
2022/04/22 06:50:08;;;;;;;50.43;26.33;;;10.80;99.90;;;;;;4158550;28;20215;-77
2022/04/22 06:52:11;;;;;;;53.23;25.90;;;10.80;99.90;;;;;;4161647;28;20220;-77
2022/04/22 06:54:13;;;;;;;50.83;26.27;;;10.80;99.90;;;;;;4159106;28;20234;-76
2022/04/22 06:56:15;;;;;;;53.93;27.67;;;10.80;99.90;;;;;;4158291;28;20269;-79
2022/04/22 06:58:18;;;;;;;47.83;25.83;;;10.80;99.90;;;;;;4157674;28;20744;-79
2022/04/22 07:00:21;;;;;;;50.03;26.20;;;10.80;99.90;;;;;;4154113;28;20215;-77
2022/04/22 07:02:24;;;;;;;50.67;26.17;;;10.90;99.90;;;;;;4155318;28;20212;-76
2022/04/22 07:04:27;;;;;;;51.57;27.47;;;10.90;99.90;;;;;;4157686;28;20247;-76
2022/04/22 07:06:31;;;;;;;49.60;25.90;;;11.00;99.90;;;;;;4156167;28;20317;-78
2022/04/22 07:08:33;;;;;;;47.97;25.50;;;11.00;99.90;;;;;;4158174;28;20217;-76
2022/04/22 07:10:35;;;;;;;50.20;25.83;;;11.10;99.90;;;;;;4164809;28;20319;-76
2022/04/22 07:12:38;;;;;;;47.40;24.53;;;11.10;99.90;;;;;;4164197;28;20219;-76
2022/04/22 07:14:44;;;;;;;49.73;26.17;;;11.20;99.90;;;;;;4157790;28;20655;-76
2022/04/22 07:16:48;;;;;;;50.90;25.83;;;11.20;99.90;;;;;;4157558;28;20229;-77
2022/04/22 07:18:51;;;;;;;54.43;26.43;;;11.20;99.90;;;;;;4163720;28;20244;-77
2022/04/22 07:20:54;;;;;;;49.27;26.30;;;11.20;99.90;;;;;;4159649;28;20220;-77
2022/04/22 07:22:59;;;;;;;51.20;25.73;;;11.30;99.90;;;;;;4157844;28;20226;-80
2022/04/22 07:25:01;;;;;;;51.97;26.40;;;11.30;99.90;;;;;;4158866;28;20211;-80
2022/04/22 07:27:04;;;;;;;54.37;26.40;;;11.40;99.90;;;;;;4157920;28;20211;-81
2022/04/22 07:29:09;;;;;;;48.13;24.80;;;11.40;99.90;;;;;;4158082;28;20216;-83
2022/04/22 07:31:11;;;;;;;46.70;24.43;;;11.30;99.90;;;;;;4158040;28;20299;-81
2022/04/22 07:33:14;;;;;;;45.63;24.10;;;11.40;99.90;;;;;;4156058;28;20378;-80
2022/04/22 07:35:17;;;;;;;49.17;25.90;;;11.50;99.90;;;;;;4155593;28;20256;-79
2022/04/22 07:37:19;;;;;;;46.20;25.03;;;11.50;99.90;;;;;;4153402;28;20231;-79
2022/04/22 07:39:23;;;;;;;45.50;25.20;;;11.50;99.90;;;;;;4152760;28;20577;-80
2022/04/22 07:41:26;;;;;;;42.03;22.83;;;11.50;99.90;;;;;;4151479;28;20221;-79
2022/04/22 07:48:13;;;;;;;41.60;23.57;;;11.70;99.90;;;;;;4150175;28;20291;-79
2022/04/22 07:50:17;;;;;;;44.10;24.33;;;11.70;99.90;;;;;;4148903;28;20213;-79
2022/04/22 07:52:19;;;;;;;47.83;24.23;;;11.80;99.90;;;;;;4151901;28;20265;-80
2022/04/22 07:54:23;;;;;;;42.50;23.93;;;11.90;99.90;;;;;;4152600;28;20311;-79
2022/04/22 07:56:25;;;;;;;41.23;22.20;;;11.90;99.90;;;;;;4149405;28;20212;-79
2022/04/22 07:58:27;;;;;;;45.03;22.63;;;12.00;99.90;;;;;;4151249;28;20307;-80
2022/04/22 08:00:29;;;;;;;40.77;21.97;;;12.10;99.90;;;;;;4149415;28;21339;-79
2022/04/22 08:02:31;;;;;;;43.03;21.97;;;12.10;99.90;;;;;;4149736;28;20219;-79
2022/04/22 08:04:32;;;;;;;43.50;22.30;;;12.10;99.90;;;;;;4149860;28;20248;-80
2022/04/22 08:06:34;;;;;;;39.90;21.27;;;12.30;99.90;;;;;;4151640;28;20229;-80
2022/04/22 08:08:36;;;;;;;38.67;21.37;;;12.30;99.90;;;;;;4152823;28;20221;-79
2022/04/22 08:10:39;;;;;;;39.20;20.53;;;12.30;99.90;;;;;;4153536;28;20239;-79
2022/04/22 08:12:41;;;;;;;36.23;20.67;;;12.40;99.90;;;;;;4150165;28;21362;-80
2022/04/22 08:14:44;;;;;;;36.60;20.23;;;12.40;99.90;;;;;;4152252;28;20220;-79
2022/04/22 08:16:45;;;;;;;45.27;21.77;;;12.50;99.90;;;;;;4152662;28;20313;-80
2022/04/22 08:18:47;;;;;;;37.77;20.07;;;12.50;99.90;;;;;;4150703;28;20355;-80
2022/04/22 08:20:49;;;;;;;35.33;19.50;;;12.60;99.90;;;;;;4151678;28;20218;-80
2022/04/22 08:22:51;;;;;;;33.73;19.13;;;12.60;99.90;;;;;;4151685;28;20683;-79
2022/04/22 08:24:53;;;;;;;33.10;19.43;;;12.70;99.90;;;;;;4151930;28;20775;-79
2022/04/22 08:26:57;;;;;;;35.00;18.07;;;12.70;99.90;;;;;;4152882;28;20631;-79
2022/04/22 08:28:59;;;;;;;30.83;17.87;;;12.80;99.90;;;;;;4152315;28;20223;-80
2022/04/22 08:31:01;;;;;;;33.00;18.53;;;12.80;99.90;;;;;;4150040;28;20249;-80
2022/04/22 08:33:03;;;;;;;33.33;18.43;;;12.80;99.90;;;;;;4151136;28;20239;-79
2022/04/22 08:35:06;;;;;;;30.63;18.13;;;12.90;99.90;;;;;;4152700;28;20382;-80
2022/04/22 08:37:07;;;;;;;34.20;18.10;;;12.90;99.90;;;;;;4150878;28;20241;-79
2022/04/22 08:39:09;;;;;;;32.03;17.83;;;12.90;99.90;;;;;;4151747;28;20603;-79
2022/04/22 08:41:11;;;;;;;29.53;17.23;;;13.00;99.90;;;;;;4152662;28;20213;-79
2022/04/22 08:43:15;;;;;;;27.67;16.37;;;13.00;99.90;;;;;;4152007;28;20589;-80
2022/04/22 08:45:17;;;;;;;27.07;15.93;;;13.10;99.90;;;;;;4150607;28;20764;-79
2022/04/22 08:52:00;;;;;;;28.10;16.70;;;13.20;99.90;;;;;;4150472;28;20213;-79
2022/04/22 08:54:02;;;;;;;27.27;15.30;;;13.20;99.90;;;;;;4150489;28;20234;-79
2022/04/22 08:56:07;;;;;;;26.83;14.97;;;13.40;99.90;;;;;;4149133;28;20605;-80
2022/04/22 08:58:11;;;;;;;26.43;15.27;;;13.40;99.90;;;;;;4150433;28;20251;-79
2022/04/22 09:00:16;;;;;;;25.77;15.80;;;13.50;99.90;;;;;;4150756;28;20218;-79
2022/04/22 09:02:18;;;;;;;25.80;15.03;;;13.60;99.90;;;;;;4148315;28;20247;-79
2022/04/22 09:04:20;;;;;;;24.10;15.27;;;13.70;99.90;;;;;;4185585;22;20235;-78
2022/04/22 09:06:25;;;;;;;23.00;14.33;;;13.80;99.90;;;;;;4138030;28;20766;-78
2022/04/22 09:08:28;;;;;;;27.43;13.90;;;13.90;99.90;;;;;;4140905;28;20270;-77
2022/04/22 09:10:30;;;;;;;22.10;14.10;;;13.90;99.90;;;;;;4143672;28;21320;-76
2022/04/22 09:12:34;;;;;;;22.80;14.73;;;14.00;99.90;;;;;;4147106;28;20212;-78
2022/04/22 09:14:37;;;;;;;23.53;14.77;;;14.00;99.90;;;;;;4158964;28;20249;-77
2022/04/22 09:16:42;;;;;;;20.00;13.03;;;14.10;99.90;;;;;;4158827;28;20221;-77
2022/04/22 09:18:44;;;;;;;21.33;13.40;;;14.10;99.90;;;;;;4156022;28;20244;-77
2022/04/22 09:20:48;;;;;;;21.77;13.23;;;14.10;99.90;;;;;;4154151;28;20409;-79
2022/04/22 09:22:49;;;;;;;22.03;13.50;;;14.20;99.90;;;;;;4150869;28;20298;-80
2022/04/22 09:24:53;;;;;;;22.10;12.60;;;14.20;99.90;;;;;;4149830;28;20714;-78
2022/04/22 09:27:05;;;;;;;18.20;12.07;;;14.20;99.90;;;;;;4150917;28;20216;-80
2022/04/22 09:29:10;;;;;;;18.50;11.80;;;14.20;99.90;;;;;;4152933;28;20584;-79
2022/04/22 09:31:11;;;;;;;18.53;11.90;;;14.20;99.90;;;;;;4149985;28;20579;-78
2022/04/22 09:33:14;;;;;;;20.70;11.60;;;14.30;99.90;;;;;;4150847;28;20289;-81
2022/04/22 09:35:17;;;;;;;19.67;12.17;;;14.30;99.90;;;;;;4152074;28;20219;-78
2022/04/22 09:44:27;;;;;;;18.43;12.07;;;14.60;99.90;;;;;;4152531;28;20356;-80
2022/04/22 09:46:30;;;;;;;19.37;11.67;;;14.70;99.90;;;;;;4157043;28;20249;-78
2022/04/22 09:48:44;;;;;;;19.53;11.97;;;14.70;99.90;;;;;;4154651;28;20217;-79
2022/04/22 09:50:48;;;;;;;18.00;10.63;;;14.80;99.90;;;;;;4158264;28;21380;-78
2022/04/22 09:52:49;;;;;;;18.13;11.73;;;14.90;99.90;;;;;;4157769;28;20271;-81
2022/04/22 09:54:57;;;;;;;20.80;11.57;;;14.90;99.90;;;;;;4156748;28;20308;-79
2022/04/22 09:57:00;;;;;;;17.77;10.83;;;15.00;99.90;;;;;;4154916;28;20641;-78
2022/04/22 09:59:22;;;;;;;18.73;11.83;;;15.10;99.90;;;;;;4157849;28;20231;-79
2022/04/22 10:01:25;;;;;;;17.37;11.67;;;15.20;99.90;;;;;;4156746;28;20214;-78
2022/04/22 10:03:30;;;;;;;19.90;12.20;;;15.20;99.90;;;;;;4155135;28;20324;-78
2022/04/22 10:05:35;;;;;;;18.33;11.67;;;15.30;99.90;;;;;;4153253;28;20359;-77
2022/04/22 10:07:38;;;;;;;17.13;11.23;;;15.30;99.50;;;;;;4156221;28;20220;-78
2022/04/22 10:09:41;;;;;;;18.47;11.40;;;15.30;99.50;;;;;;4157014;28;20262;-79
2022/04/22 10:11:48;;;;;;;18.57;11.27;;;15.30;98.90;;;;;;4155017;28;20215;-81
2022/04/22 10:13:50;;;;;;;18.40;11.03;;;15.30;99.00;;;;;;4158935;28;20629;-80
2022/04/22 10:15:53;;;;;;;18.30;10.97;;;15.30;99.30;;;;;;4153162;28;20996;-79
2022/04/22 10:17:55;;;;;;;16.23;10.83;;;15.30;99.40;;;;;;4154654;28;20593;-80
2022/04/22 10:19:59;;;;;;;16.77;10.63;;;15.30;99.60;;;;;;4157136;28;20237;-80
2022/04/22 10:22:04;;;;;;;16.90;10.07;;;15.40;99.90;;;;;;4155786;28;20364;-80
2022/04/22 10:24:08;;;;;;;15.37;9.50;;;15.40;99.90;;;;;;4155947;28;20311;-76
2022/04/22 10:26:09;;;;;;;14.30;9.37;;;15.40;99.20;;;;;;4157394;28;20262;-78
2022/04/22 10:28:13;;;;;;;12.73;8.00;;;15.50;97.80;;;;;;4156122;28;20218;-78
2022/04/22 10:30:16;;;;;;;14.13;8.70;;;15.50;96.60;;;;;;4154121;28;20698;-80
2022/04/22 10:32:19;;;;;;;12.13;7.77;;;15.50;96.10;;;;;;4156097;28;20272;-79
2022/04/22 10:34:38;;;;;;;12.27;7.37;;;15.60;95.30;;;;;;4155901;28;20599;-79
2022/04/22 10:36:40;;;;;;;12.93;8.53;;;15.70;95.00;;;;;;4155098;28;20209;-80
2022/04/22 10:38:48;;;;;;;11.77;7.63;;;15.70;95.00;;;;;;4155376;28;20677;-80
2022/04/22 10:40:50;;;;;;;13.93;8.23;;;15.80;95.30;;;;;;4151981;28;20776;-78
2022/04/22 10:42:53;;;;;;;13.83;8.00;;;15.80;94.20;;;;;;4155111;28;20592;-79
2022/04/22 10:47:16;;;;;;;12.73;8.57;;;16.00;94.00;;;;;;4153353;28;20221;-81
2022/04/22 10:49:18;;;;;;;14.07;8.63;;;15.90;94.70;;;;;;4158940;28;20222;-80
2022/04/22 10:51:20;;;;;;;13.43;8.20;;;16.20;93.60;;;;;;4161406;28;20675;-80
2022/04/22 10:53:24;;;;;;;13.90;9.07;;;16.30;93.30;;;;;;4157047;28;20218;-80
2022/04/22 10:55:27;;;;;;;15.40;8.97;;;16.40;92.60;;;;;;4155897;28;20217;-80
2022/04/22 10:57:31;;;;;;;13.57;9.47;;;16.50;92.50;;;;;;4159628;28;20972;-80
2022/04/22 10:59:33;;;;;;;14.23;9.10;;;16.70;92.40;;;;;;4156858;28;20230;-79
2022/04/22 11:01:40;;;;;;;14.27;9.50;;;16.70;91.20;;;;;;4160597;28;20282;-81
2022/04/22 11:03:56;;;;;;;16.70;9.70;;;16.80;90.50;;;;;;4157951;28;21139;-80
2022/04/22 11:05:59;;;;;;;14.13;9.57;;;16.90;90.70;;;;;;4157465;28;20227;-80
2022/04/22 11:08:01;;;;;;;14.03;9.57;;;17.20;86.90;;;;;;4158972;28;20219;-80
2022/04/22 11:10:04;;;;;;;13.70;8.90;;;17.10;86.30;;;;;;4153930;28;20210;-80
2022/04/22 11:12:07;;;;;;;13.53;8.93;;;17.30;83.80;;;;;;4164211;28;20239;-81
2022/04/22 11:14:20;;;;;;;15.67;10.60;;;17.40;81.80;;;;;;4157570;28;20649;-78
2022/04/22 11:16:29;;;;;;;14.63;10.00;;;17.50;80.20;;;;;;4152842;28;20249;-79
2022/04/22 11:18:31;;;;;;;13.27;8.97;;;17.60;80.50;;;;;;4154645;28;20210;-79
2022/04/22 11:20:35;;;;;;;13.60;9.60;;;17.70;77.30;;;;;;4151584;28;20271;-80
2022/04/22 11:22:56;;;;;;;14.43;9.37;;;17.80;75.80;;;;;;4122655;28;20298;-79
2022/04/22 11:24:58;;;;;;;13.67;9.23;;;17.90;73.80;;;;;;4117315;28;20730;-80